Time;durP1;ratioP1;P1;durP2;ratioP2;P2;SDS_P1;SDS_P2;PMS_P1;PMS_P2;Temp;Humidity;BMP_temperature;BMP_pressure;BME280_temperature;BME280_humidity;BME280_pressure;Samples;Min_cycle;Max_cycle;Signal;HPM_P1;HPM_P2
2023/09/19 00:00:43;;;;;;;0.10;0.10;;;13.40;99.90;;;;;;5018337;28;20044;-65
2023/09/19 00:03:09;;;;;;;0.00;0.00;;;13.40;99.90;;;;;;5024778;28;20120;-65
2023/09/19 00:05:36;;;;;;;0.00;0.00;;;13.30;99.90;;;;;;5020864;28;20492;-65
2023/09/19 00:08:05;;;;;;;0.00;0.00;;;13.40;99.90;;;;;;5023050;28;21089;-65
2023/09/19 00:10:34;;;;;;;0.08;0.08;;;13.40;99.90;;;;;;5051656;28;20028;-65
2023/09/19 00:13:05;;;;;;;0.50;0.50;;;13.40;99.90;;;;;;5022979;28;20096;-65
2023/09/19 00:15:36;;;;;;;0.43;0.10;;;13.40;99.90;;;;;;5017561;28;20411;-65
2023/09/19 00:18:01;;;;;;;0.10;0.10;;;13.40;99.90;;;;;;5027179;28;20045;-65
2023/09/19 00:20:29;;;;;;;1.02;0.38;;;13.40;99.90;;;;;;5022747;28;20091;-65
2023/09/19 00:22:55;;;;;;;0.10;0.10;;;13.40;99.90;;;;;;5023837;28;20048;-65
2023/09/19 00:25:20;;;;;;;0.03;0.03;;;13.40;99.90;;;;;;5020475;28;20491;-65
2023/09/19 00:27:49;;;;;;;0.10;0.10;;;13.50;99.90;;;;;;5023893;28;20041;-65
2023/09/19 00:30:21;;;;;;;1.10;0.20;;;13.40;99.90;;;;;;5019845;28;20083;-65
2023/09/19 00:32:48;;;;;;;0.40;0.40;;;13.40;99.90;;;;;;5027419;28;20044;-65
2023/09/19 00:35:16;;;;;;;0.98;0.43;;;13.40;99.90;;;;;;5024304;28;20041;-65
2023/09/19 00:37:42;;;;;;;0.00;0.00;;;13.50;99.90;;;;;;5043701;28;20139;-65
2023/09/19 00:40:12;;;;;;;0.10;0.10;;;13.40;99.90;;;;;;5026108;28;20037;-65
2023/09/19 00:42:39;;;;;;;0.10;0.10;;;13.40;99.90;;;;;;5020487;28;20045;-65
2023/09/19 00:45:11;;;;;;;0.10;0.10;;;13.40;99.90;;;;;;5051714;28;20484;-65
2023/09/19 00:47:50;;;;;;;0.20;0.20;;;13.30;99.90;;;;;;5017633;28;20053;-65
2023/09/19 00:50:22;;;;;;;0.10;0.10;;;13.30;99.90;;;;;;5037432;28;20033;-67
2023/09/19 00:52:50;;;;;;;0.10;0.10;;;13.40;99.90;;;;;;5024646;28;20048;-64
2023/09/19 00:55:19;;;;;;;0.10;0.10;;;13.30;99.90;;;;;;5025267;28;20037;-65
2023/09/19 00:57:45;;;;;;;0.28;0.28;;;13.30;99.90;;;;;;5061575;28;20056;-65
2023/09/19 01:00:15;;;;;;;0.10;0.10;;;13.30;99.90;;;;;;5023942;28;20041;-66
2023/09/19 01:02:44;;;;;;;0.30;0.30;;;13.30;99.90;;;;;;5022354;28;20047;-65
2023/09/19 01:05:10;;;;;;;0.25;0.25;;;13.20;99.90;;;;;;5020520;28;20052;-66
2023/09/19 01:07:40;;;;;;;0.47;0.32;;;13.20;99.90;;;;;;5021268;28;20116;-65
2023/09/19 01:10:09;;;;;;;0.15;0.15;;;13.20;99.90;;;;;;5018891;28;20037;-65
2023/09/19 01:13:08;;;;;;;0.20;0.20;;;13.20;99.90;;;;;;5013661;28;20041;-65
2023/09/19 01:15:46;;;;;;;0.47;0.15;;;13.20;99.90;;;;;;5019531;28;20561;-65
2023/09/19 01:18:25;;;;;;;0.10;0.10;;;13.10;99.90;;;;;;5020723;28;20074;-65
2023/09/19 01:21:29;;;;;;;1.45;0.30;;;13.10;99.90;;;;;;5020980;28;20041;-66
2023/09/19 01:24:25;;;;;;;0.10;0.10;;;13.10;99.90;;;;;;5018711;28;20046;-65
2023/09/19 01:27:30;;;;;;;0.10;0.10;;;13.10;99.90;;;;;;5019218;28;20072;-65
2023/09/19 01:30:22;;;;;;;0.10;0.10;;;13.10;99.90;;;;;;5051987;28;20041;-65
2023/09/19 01:32:52;;;;;;;0.10;0.10;;;13.00;99.90;;;;;;5012830;28;20060;-65
2023/09/19 01:35:18;;;;;;;0.00;0.00;;;13.00;99.90;;;;;;5020472;28;20037;-65
2023/09/19 01:37:44;;;;;;;0.35;0.30;;;13.00;99.90;;;;;;5023119;28;20488;-65
2023/09/19 01:40:16;;;;;;;0.10;0.10;;;13.00;99.90;;;;;;5022028;28;20045;-65
2023/09/19 01:42:56;;;;;;;0.10;0.10;;;13.00;99.90;;;;;;5018141;28;20060;-65
2023/09/19 01:45:37;;;;;;;3.85;1.73;;;13.00;99.90;;;;;;5021214;28;20419;-66
2023/09/19 01:48:28;;;;;;;1.23;1.13;;;13.00;99.90;;;;;;5017127;28;20093;-65
2023/09/19 01:51:05;;;;;;;0.30;0.30;;;13.10;99.90;;;;;;5013921;28;20045;-65
2023/09/19 01:53:56;;;;;;;0.38;0.38;;;13.00;99.90;;;;;;5022992;28;20515;-65
2023/09/19 01:56:35;;;;;;;0.10;0.10;;;13.00;99.90;;;;;;5015031;28;20095;-65
2023/09/19 01:59:06;;;;;;;0.10;0.10;;;13.00;99.90;;;;;;5019093;28;20162;-65
2023/09/19 02:01:33;;;;;;;0.10;0.10;;;13.00;99.90;;;;;;5016908;28;20029;-65
2023/09/19 02:03:59;;;;;;;0.25;0.20;;;13.00;99.90;;;;;;5022293;28;20033;-65
2023/09/19 02:06:25;;;;;;;14.45;0.43;;;13.00;99.90;;;;;;5023181;28;20110;-65
2023/09/19 02:08:50;;;;;;;0.17;0.17;;;13.00;99.90;;;;;;5019709;28;20041;-65
2023/09/19 02:11:16;;;;;;;0.32;0.10;;;13.00;99.90;;;;;;5021076;28;20060;-65
2023/09/19 02:13:42;;;;;;;0.20;0.10;;;13.00;99.90;;;;;;5017242;28;20114;-65
2023/09/19 02:16:09;;;;;;;0.30;0.20;;;13.00;99.90;;;;;;5021999;28;20086;-66
2023/09/19 02:18:34;;;;;;;0.20;0.20;;;13.00;99.90;;;;;;5017008;28;20854;-65
2023/09/19 02:21:01;;;;;;;1.00;0.70;;;13.00;99.90;;;;;;5019231;28;20089;-66
2023/09/19 02:23:27;;;;;;;0.10;0.10;;;13.00;99.90;;;;;;5015165;28;20068;-65
2023/09/19 02:26:06;;;;;;;0.28;0.28;;;13.00;99.90;;;;;;5016445;28;20321;-65
2023/09/19 02:28:32;;;;;;;0.73;0.40;;;13.00;99.90;;;;;;5016355;28;20048;-65
2023/09/19 02:30:58;;;;;;;3.83;0.28;;;13.00;99.90;;;;;;5017480;28;20522;-65
2023/09/19 02:33:24;;;;;;;0.20;0.20;;;13.00;99.90;;;;;;5018883;28;20750;-65
2023/09/19 02:35:54;;;;;;;0.10;0.10;;;13.00;99.90;;;;;;5018978;28;20037;-65
2023/09/19 02:38:24;;;;;;;0.00;0.00;;;13.00;99.90;;;;;;5019057;28;20068;-66
2023/09/19 02:40:50;;;;;;;1.55;0.90;;;13.00;99.90;;;;;;5016489;28;20048;-66
2023/09/19 02:43:16;;;;;;;0.20;0.20;;;13.00;99.90;;;;;;5017741;28;20119;-66
2023/09/19 02:45:42;;;;;;;0.45;0.22;;;13.00;99.90;;;;;;5022174;28;20037;-65
2023/09/19 02:48:08;;;;;;;0.20;0.20;;;13.00;99.90;;;;;;5018648;28;20525;-66
2023/09/19 02:50:33;;;;;;;0.10;0.10;;;13.00;99.90;;;;;;5016935;28;20119;-65
2023/09/19 02:52:59;;;;;;;0.35;0.20;;;13.00;99.90;;;;;;5015756;28;20115;-65
2023/09/19 02:55:25;;;;;;;0.05;0.05;;;13.00;99.90;;;;;;5014128;28;20033;-67
2023/09/19 02:57:52;;;;;;;0.20;0.20;;;13.00;99.90;;;;;;5019513;28;20041;-66
2023/09/19 03:00:22;;;;;;;0.25;0.25;;;13.00;99.90;;;;;;5022477;28;20053;-66
2023/09/19 03:02:49;;;;;;;0.10;0.10;;;12.90;99.90;;;;;;5021991;28;20041;-66
2023/09/19 03:05:15;;;;;;;0.22;0.22;;;12.90;99.90;;;;;;5037252;28;20037;-66
2023/09/19 03:07:42;;;;;;;0.00;0.00;;;12.90;99.90;;;;;;5019231;28;20094;-66
2023/09/19 03:10:09;;;;;;;0.00;0.00;;;12.90;99.90;;;;;;5018709;28;20051;-66
2023/09/19 03:12:35;;;;;;;0.10;0.10;;;12.90;99.90;;;;;;5018857;28;20052;-66
2023/09/19 03:15:01;;;;;;;2.20;1.20;;;12.90;99.90;;;;;;5048401;28;20163;-66
2023/09/19 03:17:27;;;;;;;0.40;0.40;;;12.90;99.90;;;;;;5015726;28;20435;-65
2023/09/19 03:19:53;;;;;;;0.80;0.47;;;13.00;99.90;;;;;;5014039;28;20037;-66
2023/09/19 03:22:19;;;;;;;0.30;0.30;;;13.00;99.90;;;;;;5019706;28;20231;-66
2023/09/19 03:24:46;;;;;;;2.83;0.98;;;13.10;99.90;;;;;;5019260;28;20136;-65
2023/09/19 03:27:14;;;;;;;0.88;0.88;;;13.10;99.90;;;;;;5017801;28;20061;-66
2023/09/19 03:29:39;;;;;;;0.10;0.10;;;13.20;99.90;;;;;;5016255;28;20043;-66
2023/09/19 03:32:05;;;;;;;0.10;0.10;;;13.20;99.90;;;;;;5013974;28;20029;-66
2023/09/19 03:34:31;;;;;;;0.10;0.10;;;13.20;99.90;;;;;;5020175;28;20033;-65
2023/09/19 03:36:56;;;;;;;1.17;0.60;;;13.20;99.90;;;;;;5026892;28;20476;-66
2023/09/19 03:39:22;;;;;;;0.32;0.20;;;13.30;99.90;;;;;;5024651;28;20464;-66
2023/09/19 03:41:49;;;;;;;0.30;0.20;;;13.20;99.90;;;;;;5019694;28;20433;-66
2023/09/19 03:44:15;;;;;;;0.20;0.15;;;13.20;99.90;;;;;;5019520;28;20132;-66
2023/09/19 03:46:40;;;;;;;0.25;0.15;;;13.20;99.90;;;;;;5018509;28;20143;-66
2023/09/19 03:49:06;;;;;;;0.05;0.05;;;13.20;99.90;;;;;;5002065;28;20045;-66
2023/09/19 03:51:34;;;;;;;0.10;0.10;;;13.30;99.90;;;;;;5024252;28;20091;-66
2023/09/19 03:53:59;;;;;;;0.20;0.20;;;13.20;99.90;;;;;;5016995;28;20037;-66
2023/09/19 03:56:25;;;;;;;1.92;0.40;;;13.30;99.90;;;;;;5003997;28;20035;-65
2023/09/19 03:58:51;;;;;;;0.10;0.10;;;13.30;99.90;;;;;;5021478;28;20036;-65
2023/09/19 04:01:18;;;;;;;5.35;0.73;;;13.30;99.90;;;;;;5017653;28;20033;-67
2023/09/19 04:03:47;;;;;;;0.15;0.15;;;13.40;99.90;;;;;;5019259;28;20045;-66
2023/09/19 04:06:16;;;;;;;0.17;0.15;;;13.40;99.90;;;;;;5001733;28;20495;-67
2023/09/19 04:08:43;;;;;;;4.13;0.25;;;13.40;99.90;;;;;;5020783;28;20179;-66
2023/09/19 04:11:09;;;;;;;0.08;0.08;;;13.40;99.90;;;;;;5021609;28;20044;-67
2023/09/19 04:13:35;;;;;;;0.08;0.08;;;13.40;99.90;;;;;;5022688;28;20041;-66
2023/09/19 04:16:00;;;;;;;0.60;0.20;;;13.40;99.90;;;;;;5021461;28;20500;-67
2023/09/19 04:18:26;;;;;;;0.30;0.30;;;13.40;99.90;;;;;;5018971;28;20717;-66
2023/09/19 04:20:52;;;;;;;0.10;0.10;;;13.40;99.90;;;;;;5025032;28;20044;-67
2023/09/19 04:23:21;;;;;;;0.30;0.22;;;13.40;99.90;;;;;;5018986;28;20560;-66
2023/09/19 04:25:46;;;;;;;0.20;0.20;;;13.50;99.90;;;;;;5050574;28;20037;-66
2023/09/19 04:28:12;;;;;;;0.10;0.10;;;13.50;99.90;;;;;;5025007;28;20515;-66
2023/09/19 04:30:40;;;;;;;0.10;0.10;;;13.50;99.90;;;;;;5017019;28;20180;-67
2023/09/19 04:33:06;;;;;;;0.43;0.43;;;13.50;99.90;;;;;;5022753;28;20070;-66
2023/09/19 04:35:32;;;;;;;0.40;0.40;;;13.50;99.90;;;;;;5022424;28;20032;-66
2023/09/19 04:37:58;;;;;;;6.55;0.47;;;13.50;99.90;;;;;;5022506;28;20098;-66
2023/09/19 04:40:26;;;;;;;1.70;0.43;;;13.50;99.90;;;;;;5019499;28;20086;-67
2023/09/19 04:42:58;;;;;;;0.20;0.20;;;13.50;99.90;;;;;;5015818;28;20056;-66
2023/09/19 04:45:28;;;;;;;0.22;0.10;;;13.50;99.90;;;;;;5020373;28;20045;-66
2023/09/19 04:47:54;;;;;;;0.28;0.28;;;13.50;99.90;;;;;;5019701;28;20077;-67
2023/09/19 04:50:21;;;;;;;0.10;0.10;;;13.50;99.90;;;;;;5035600;28;20472;-67
2023/09/19 04:52:50;;;;;;;0.32;0.32;;;13.50;99.90;;;;;;5024355;28;20060;-67
2023/09/19 04:55:17;;;;;;;1.27;0.47;;;13.50;99.90;;;;;;5016547;28;20514;-66
2023/09/19 04:57:47;;;;;;;0.20;0.20;;;13.50;99.90;;;;;;5020443;28;20136;-65
2023/09/19 05:00:16;;;;;;;1.88;0.57;;;13.50;99.90;;;;;;5022208;28;20040;-65
2023/09/19 05:02:42;;;;;;;0.10;0.10;;;13.50;99.90;;;;;;5023033;28;20052;-67
2023/09/19 05:05:10;;;;;;;0.00;0.00;;;13.50;99.90;;;;;;5022892;28;20045;-66
2023/09/19 05:07:35;;;;;;;0.40;0.40;;;13.50;99.90;;;;;;5031566;28;20135;-65
2023/09/19 05:10:05;;;;;;;3.85;0.95;;;13.50;99.90;;;;;;5015623;28;20136;-67
2023/09/19 05:12:39;;;;;;;0.22;0.22;;;13.50;99.90;;;;;;5011991;28;20037;-67
2023/09/19 05:15:07;;;;;;;0.15;0.15;;;13.40;99.90;;;;;;5017157;28;20045;-67
2023/09/19 05:17:36;;;;;;;0.45;0.30;;;13.40;99.90;;;;;;5018807;28;20064;-65
2023/09/19 05:20:15;;;;;;;0.10;0.10;;;13.40;99.90;;;;;;5021855;28;20400;-67
2023/09/19 05:22:46;;;;;;;0.65;0.50;;;13.40;99.90;;;;;;5024003;28;20059;-67
2023/09/19 05:25:15;;;;;;;2.38;0.38;;;13.40;99.90;;;;;;5024116;28;20080;-67
2023/09/19 05:27:42;;;;;;;0.10;0.10;;;13.40;99.90;;;;;;5024234;28;20083;-68
2023/09/19 05:30:08;;;;;;;0.13;0.13;;;13.30;99.90;;;;;;5020887;28;20087;-68
2023/09/19 05:32:34;;;;;;;0.43;0.20;;;13.30;99.90;;;;;;5001924;28;20043;-65
2023/09/19 05:34:59;;;;;;;2.17;0.60;;;13.30;99.90;;;;;;5027585;28;20038;-67
2023/09/19 05:37:26;;;;;;;0.43;0.43;;;13.20;99.90;;;;;;5023203;28;20048;-66
2023/09/19 05:39:53;;;;;;;0.10;0.10;;;13.20;99.90;;;;;;5007714;28;20099;-67
2023/09/19 05:42:18;;;;;;;0.82;0.28;;;13.20;99.90;;;;;;5021024;28;20064;-67
2023/09/19 05:44:44;;;;;;;0.10;0.10;;;13.10;99.90;;;;;;5026506;28;20604;-66
2023/09/19 05:47:09;;;;;;;0.13;0.13;;;13.10;99.90;;;;;;5026776;28;20082;-66
2023/09/19 05:49:38;;;;;;;0.43;0.40;;;13.10;99.90;;;;;;5045016;28;20078;-66
2023/09/19 05:52:06;;;;;;;0.45;0.43;;;13.10;99.90;;;;;;5041396;28;20044;-67
2023/09/19 05:54:34;;;;;;;1.55;0.50;;;13.10;99.90;;;;;;5042318;28;20422;-67
2023/09/19 05:57:01;;;;;;;0.10;0.10;;;13.10;99.90;;;;;;5075594;28;20044;-66
2023/09/19 05:59:27;;;;;;;0.05;0.05;;;13.00;99.90;;;;;;5043964;28;20390;-68
2023/09/19 06:01:53;;;;;;;0.35;0.35;;;13.10;99.90;;;;;;5041302;28;20040;-68
2023/09/19 06:04:21;;;;;;;2.92;0.52;;;13.10;99.90;;;;;;5047053;28;20143;-67
2023/09/19 06:06:48;;;;;;;0.38;0.38;;;13.10;99.90;;;;;;5038716;28;20087;-67
2023/09/19 06:09:14;;;;;;;0.13;0.13;;;13.10;99.90;;;;;;5041232;28;20030;-66
2023/09/19 06:11:42;;;;;;;0.28;0.28;;;13.20;99.90;;;;;;5040537;28;20039;-67
2023/09/19 06:14:07;;;;;;;0.00;0.00;;;13.20;99.90;;;;;;5045553;28;20499;-67
2023/09/19 06:16:33;;;;;;;18.92;0.43;;;13.30;99.90;;;;;;5040962;28;20036;-67
2023/09/19 06:18:59;;;;;;;1.10;0.25;;;13.30;99.90;;;;;;5045815;28;20048;-67
2023/09/19 06:21:26;;;;;;;0.10;0.10;;;13.30;99.90;;;;;;5041918;28;20040;-65
2023/09/19 06:23:53;;;;;;;0.00;0.00;;;13.30;99.90;;;;;;5042884;28;20047;-66
2023/09/19 06:26:19;;;;;;;0.45;0.10;;;13.20;99.90;;;;;;5034968;28;20037;-67
2023/09/19 06:28:44;;;;;;;0.30;0.30;;;13.20;99.90;;;;;;5035098;28;20044;-66
2023/09/19 06:31:10;;;;;;;0.10;0.10;;;13.20;99.90;;;;;;5041153;28;20035;-66
2023/09/19 06:33:40;;;;;;;0.73;0.73;;;13.20;99.90;;;;;;5076560;28;20044;-67
2023/09/19 06:36:06;;;;;;;0.03;0.03;;;13.20;99.90;;;;;;5071797;28;20051;-66
2023/09/19 06:38:34;;;;;;;1.65;0.15;;;13.20;99.90;;;;;;5046657;28;20123;-66
2023/09/19 06:41:01;;;;;;;0.80;0.45;;;13.30;99.90;;;;;;5038902;28;20041;-66
2023/09/19 06:43:28;;;;;;;2.05;0.20;;;13.30;99.90;;;;;;5076361;28;20040;-66
2023/09/19 06:45:54;;;;;;;0.55;0.47;;;13.40;99.90;;;;;;5040439;28;20047;-67
2023/09/19 06:48:21;;;;;;;0.17;0.17;;;13.30;99.90;;;;;;5046145;28;20040;-67
2023/09/19 06:50:47;;;;;;;1.45;1.35;;;13.40;99.90;;;;;;5074130;28;20059;-65
2023/09/19 06:53:14;;;;;;;0.00;0.00;;;13.40;99.90;;;;;;5041675;28;20408;-66
2023/09/19 06:55:40;;;;;;;0.25;0.25;;;13.50;99.90;;;;;;5043285;28;20032;-68
2023/09/19 06:58:07;;;;;;;0.10;0.10;;;13.60;99.90;;;;;;5039680;28;20677;-69
2023/09/19 07:00:33;;;;;;;0.73;0.43;;;13.60;99.90;;;;;;5054523;28;20572;-68
2023/09/19 07:03:01;;;;;;;0.00;0.00;;;13.70;99.90;;;;;;5026839;28;20041;-67
2023/09/19 07:05:31;;;;;;;0.10;0.10;;;13.80;99.90;;;;;;5042508;28;20097;-67
2023/09/19 07:08:00;;;;;;;0.10;0.10;;;13.80;99.90;;;;;;5042875;28;20056;-67
2023/09/19 07:10:28;;;;;;;0.10;0.10;;;13.90;99.90;;;;;;5038888;28;20033;-66
2023/09/19 07:12:58;;;;;;;0.30;0.30;;;13.90;99.90;;;;;;5039091;28;20044;-67
2023/09/19 07:15:25;;;;;;;0.20;0.17;;;13.90;99.90;;;;;;5043849;28;20036;-68
2023/09/19 07:17:56;;;;;;;0.00;0.00;;;13.90;99.90;;;;;;5039065;28;20052;-68
2023/09/19 07:20:22;;;;;;;0.00;0.00;;;13.90;99.90;;;;;;5059201;28;20056;-68
2023/09/19 07:22:50;;;;;;;0.10;0.10;;;13.90;99.90;;;;;;5038755;28;20055;-67
2023/09/19 07:25:16;;;;;;;0.77;0.77;;;14.00;99.90;;;;;;5042289;28;20041;-66
2023/09/19 07:27:42;;;;;;;12.18;1.08;;;14.00;99.90;;;;;;5038782;28;20040;-68
2023/09/19 07:30:08;;;;;;;1.80;1.45;;;14.00;99.90;;;;;;5074448;28;20398;-68
2023/09/19 07:32:36;;;;;;;0.10;0.10;;;14.00;99.90;;;;;;5041514;28;20040;-66
2023/09/19 07:35:03;;;;;;;0.25;0.25;;;14.00;99.90;;;;;;5045091;28;20049;-66
2023/09/19 07:37:31;;;;;;;0.65;0.65;;;14.10;99.90;;;;;;5039067;28;20041;-67
2023/09/19 07:39:56;;;;;;;0.10;0.10;;;14.10;99.90;;;;;;5041731;28;20051;-67
2023/09/19 07:42:22;;;;;;;0.20;0.20;;;14.20;99.90;;;;;;5036454;28;20041;-67
2023/09/19 07:44:50;;;;;;;0.20;0.20;;;14.30;99.90;;;;;;5025774;28;20152;-66
2023/09/19 07:47:16;;;;;;;2.22;0.30;;;14.40;99.90;;;;;;5023579;28;20047;-67
2023/09/19 07:49:42;;;;;;;0.40;0.40;;;14.40;99.90;;;;;;5041914;28;20029;-67
2023/09/19 07:52:09;;;;;;;0.13;0.13;;;14.50;99.90;;;;;;5048759;28;20126;-68
2023/09/19 07:54:35;;;;;;;0.10;0.10;;;14.50;99.90;;;;;;5049187;28;20036;-67
2023/09/19 07:57:02;;;;;;;0.95;0.95;;;14.50;99.90;;;;;;5039380;28;20091;-65
2023/09/19 07:59:27;;;;;;;0.13;0.13;;;14.60;99.90;;;;;;5051173;28;20048;-67
2023/09/19 08:01:53;;;;;;;1.08;0.10;;;14.60;99.90;;;;;;5042152;28;20043;-68
2023/09/19 08:04:19;;;;;;;0.65;0.30;;;14.60;99.90;;;;;;5032515;28;20083;-64
2023/09/19 08:06:45;;;;;;;0.13;0.13;;;14.70;99.90;;;;;;5031001;28;20076;-65
2023/09/19 08:09:12;;;;;;;0.00;0.00;;;14.70;99.90;;;;;;5031515;28;20044;-67
2023/09/19 08:11:39;;;;;;;0.05;0.05;;;14.80;99.90;;;;;;5037193;28;20472;-66
2023/09/19 08:14:05;;;;;;;0.10;0.10;;;14.80;99.90;;;;;;5032064;28;20091;-68
2023/09/19 08:16:31;;;;;;;1.65;0.20;;;14.80;99.90;;;;;;5032022;28;20507;-67
2023/09/19 08:18:57;;;;;;;0.00;0.00;;;14.80;99.90;;;;;;5015559;28;20061;-67
2023/09/19 08:21:23;;;;;;;0.75;0.20;;;14.90;99.90;;;;;;5030477;28;20045;-66
2023/09/19 08:23:49;;;;;;;2.45;0.30;;;14.90;99.90;;;;;;5045032;28;20072;-68
2023/09/19 08:26:15;;;;;;;1.17;0.75;;;15.00;99.90;;;;;;5048472;28;20045;-68
2023/09/19 08:28:41;;;;;;;0.40;0.40;;;15.10;99.90;;;;;;5050285;28;20041;-65
2023/09/19 08:31:08;;;;;;;0.82;0.82;;;15.20;99.90;;;;;;5040773;28;20043;-66
2023/09/19 08:33:36;;;;;;;0.10;0.10;;;15.20;99.90;;;;;;5046183;28;20051;-67
2023/09/19 08:36:05;;;;;;;10.50;0.30;;;15.30;99.90;;;;;;5038754;28;20064;-66
2023/09/19 08:38:33;;;;;;;0.10;0.10;;;15.30;99.90;;;;;;5042096;28;20047;-66
2023/09/19 08:41:00;;;;;;;0.30;0.30;;;15.30;99.90;;;;;;5050455;28;20044;-67
2023/09/19 08:43:26;;;;;;;0.10;0.10;;;15.40;99.90;;;;;;5032164;28;20033;-65
2023/09/19 08:46:06;;;;;;;0.55;0.55;;;15.40;99.90;;;;;;5035075;28;20579;-68
2023/09/19 08:48:34;;;;;;;0.47;0.20;;;15.50;99.90;;;;;;5063934;28;20048;-66
2023/09/19 08:51:14;;;;;;;0.32;0.32;;;15.50;99.90;;;;;;5035144;28;20060;-67
2023/09/19 08:54:22;;;;;;;0.10;0.10;;;15.60;99.90;;;;;;5029119;28;20044;-66
2023/09/19 08:56:50;;;;;;;0.68;0.50;;;15.70;99.90;;;;;;4973328;28;20113;-66
2023/09/19 08:59:16;;;;;;;0.00;0.00;;;15.70;99.90;;;;;;5037621;28;20091;-68
2023/09/19 09:01:42;;;;;;;1.88;0.50;;;15.80;99.90;;;;;;5036011;28;20070;-67
2023/09/19 09:04:12;;;;;;;0.10;0.10;;;15.80;99.90;;;;;;5035868;28;20468;-66
2023/09/19 09:06:39;;;;;;;4.28;1.25;;;16.00;99.90;;;;;;5037017;28;20050;-65
2023/09/19 09:09:05;;;;;;;1.08;0.22;;;16.00;99.90;;;;;;5055041;28;20105;-65
2023/09/19 09:11:34;;;;;;;0.13;0.13;;;16.20;99.90;;;;;;5040757;28;20040;-65
2023/09/19 09:13:59;;;;;;;0.10;0.10;;;16.20;99.90;;;;;;5035632;28;20044;-66
2023/09/19 09:16:26;;;;;;;3.83;0.35;;;16.20;99.90;;;;;;5039789;28;20044;-66
2023/09/19 09:18:54;;;;;;;0.10;0.10;;;16.30;99.90;;;;;;5034928;28;20087;-65
2023/09/19 09:21:21;;;;;;;0.20;0.13;;;16.40;99.90;;;;;;5047596;28;20044;-65
2023/09/19 09:23:47;;;;;;;0.20;0.20;;;16.50;99.90;;;;;;5083764;28;20503;-66
2023/09/19 09:26:13;;;;;;;0.20;0.20;;;16.50;99.90;;;;;;5037168;28;20402;-66
2023/09/19 09:28:45;;;;;;;0.93;0.93;;;16.50;99.90;;;;;;5053158;28;20040;-66
2023/09/19 09:31:25;;;;;;;0.40;0.30;;;16.50;99.90;;;;;;5034695;28;20044;-66
2023/09/19 09:33:55;;;;;;;0.00;0.00;;;16.50;99.90;;;;;;5072052;28;20517;-65
2023/09/19 09:36:38;;;;;;;0.52;0.40;;;16.60;99.90;;;;;;5049102;28;20040;-66
2023/09/19 09:39:15;;;;;;;0.15;0.15;;;16.50;99.90;;;;;;5052708;28;20086;-66
2023/09/19 09:41:42;;;;;;;0.30;0.22;;;16.70;99.90;;;;;;5037437;28;20767;-68
2023/09/19 09:44:18;;;;;;;0.20;0.20;;;16.60;99.90;;;;;;5070053;28;20036;-65
2023/09/19 09:49:33;;;;;;;0.25;0.22;;;16.70;99.90;;;;;;5045181;28;20044;-65
2023/09/19 09:52:37;;;;;;;1.10;0.50;;;16.70;99.90;;;;;;5047752;28;20045;-66
2023/09/19 09:55:01;;;;;;;0.63;0.63;;;16.60;99.90;;;;;;5034318;28;20499;-66
2023/09/19 09:57:26;;;;;;;0.40;0.40;;;16.70;99.90;;;;;;5042210;28;20129;-66
2023/09/19 09:59:55;;;;;;;1.10;0.20;;;16.70;99.90;;;;;;5039605;28;20079;-65
2023/09/19 10:02:29;;;;;;;0.45;0.45;;;16.80;99.90;;;;;;5039884;28;20044;-66
2023/09/19 10:05:06;;;;;;;5.78;1.15;;;16.80;99.90;;;;;;5037248;28;20131;-65
2023/09/19 10:07:36;;;;;;;0.40;0.40;;;16.80;99.90;;;;;;5039547;28;20094;-66
2023/09/19 10:10:53;;;;;;;0.40;0.40;;;16.80;99.90;;;;;;5043977;28;20041;-66
2023/09/19 10:13:02;;;;;;;4.28;0.57;;;16.80;99.90;;;;;;5040669;28;20051;-65
2023/09/19 10:15:32;;;;;;;0.40;0.40;;;16.90;99.90;;;;;;5053806;28;20044;-65
2023/09/19 10:18:04;;;;;;;3.63;0.93;;;16.80;99.90;;;;;;5043757;28;20075;-65
2023/09/19 10:22:57;;;;;;;0.10;0.10;;;17.00;99.90;;;;;;5041157;28;20052;-66
2023/09/19 10:25:28;;;;;;;0.10;0.10;;;17.00;99.90;;;;;;5033849;28;20045;-65
2023/09/19 10:27:55;;;;;;;0.08;0.08;;;16.90;99.90;;;;;;5033259;28;20040;-64
2023/09/19 10:30:23;;;;;;;1.08;0.35;;;17.00;99.90;;;;;;5032909;28;20052;-65
2023/09/19 10:33:03;;;;;;;0.15;0.10;;;17.00;99.90;;;;;;5033814;28;20402;-65
2023/09/19 10:35:29;;;;;;;0.10;0.10;;;17.10;99.90;;;;;;5023909;28;20036;-66
2023/09/19 10:38:01;;;;;;;14.02;1.40;;;17.10;99.90;;;;;;5044196;28;20508;-66
2023/09/19 10:40:30;;;;;;;0.32;0.22;;;17.30;99.90;;;;;;5047143;28;20043;-67
2023/09/19 10:43:05;;;;;;;0.80;0.68;;;17.40;99.90;;;;;;5043738;28;20032;-69
2023/09/19 10:45:32;;;;;;;9.82;0.80;;;17.40;99.90;;;;;;5045211;28;20050;-67
2023/09/19 10:47:58;;;;;;;0.20;0.20;;;17.40;99.90;;;;;;5043584;28;20048;-65
2023/09/19 10:50:25;;;;;;;0.03;0.03;;;17.40;99.90;;;;;;5050772;28;20036;-65
2023/09/19 10:53:04;;;;;;;0.45;0.45;;;17.40;99.90;;;;;;5063082;28;20036;-66
2023/09/19 10:55:31;;;;;;;0.35;0.35;;;17.50;99.90;;;;;;5042076;28;20435;-67
2023/09/19 10:58:13;;;;;;;0.13;0.13;;;17.50;99.90;;;;;;5042661;28;20478;-65
2023/09/19 11:00:53;;;;;;;0.20;0.10;;;17.50;99.90;;;;;;5042481;28;20041;-66
2023/09/19 11:03:23;;;;;;;1.08;0.20;;;17.50;99.90;;;;;;5046682;28;20040;-66
2023/09/19 11:06:15;;;;;;;0.57;0.55;;;17.50;99.90;;;;;;5044422;28;20467;-66
2023/09/19 11:08:51;;;;;;;;;;;17.50;99.90;;;;;;5051894;28;20049;-64
2023/09/19 11:11:39;;;;;;;0.20;0.20;;;17.60;99.90;;;;;;5071282;28;19927;-65
2023/09/19 11:14:23;;;;;;;0.10;0.10;;;17.70;99.90;;;;;;5048262;28;20063;-66
2023/09/19 11:17:07;;;;;;;0.20;0.20;;;17.70;99.90;;;;;;5040186;28;20036;-65
2023/09/19 11:23:05;;;;;;;0.52;0.22;;;17.70;99.90;;;;;;5040983;28;20090;-65
2023/09/19 11:25:32;;;;;;;;;;;17.80;99.90;;;;;;5050758;28;20164;-65
2023/09/19 11:28:08;;;;;;;0.47;0.47;;;18.00;99.90;;;;;;5034261;28;20344;-64
2023/09/19 11:30:48;;;;;;;3.70;0.40;;;18.00;99.90;;;;;;5048669;28;20117;-64
2023/09/19 11:33:38;;;;;;;0.10;0.10;;;18.00;99.90;;;;;;5039187;28;20137;-66
2023/09/19 11:36:19;;;;;;;0.98;0.22;;;18.00;99.90;;;;;;5040959;28;20112;-66
2023/09/19 11:38:45;;;;;;;3.35;0.52;;;17.90;99.90;;;;;;5074413;28;20055;-66
2023/09/19 11:41:26;;;;;;;2.00;1.27;;;17.80;99.90;;;;;;5040121;28;20040;-65
2023/09/19 11:43:54;;;;;;;0.10;0.10;;;17.80;99.90;;;;;;5046550;28;20514;-66
2023/09/19 11:46:23;;;;;;;0.45;0.45;;;17.80;99.90;;;;;;5039611;28;20585;-70
2023/09/19 11:48:50;;;;;;;17.88;0.73;;;17.70;99.90;;;;;;5039010;28;20063;-65
2023/09/19 11:51:26;;;;;;;0.10;0.10;;;17.70;99.90;;;;;;5036208;28;20445;-65
2023/09/19 11:54:01;;;;;;;0.20;0.20;;;17.60;99.90;;;;;;5073290;28;20369;-64
2023/09/19 11:56:27;;;;;;;0.00;0.00;;;17.70;99.90;;;;;;5068593;28;20069;-64
2023/09/19 11:58:55;;;;;;;0.45;0.45;;;17.70;99.90;;;;;;5042813;28;20131;-65
2023/09/19 12:01:24;;;;;;;0.17;0.10;;;17.70;99.90;;;;;;5033957;28;20055;-64
2023/09/19 12:03:54;;;;;;;0.25;0.25;;;17.70;99.90;;;;;;5035271;28;20055;-65
2023/09/19 12:06:21;;;;;;;0.10;0.10;;;17.70;99.90;;;;;;5039214;28;20050;-65
2023/09/19 12:08:48;;;;;;;0.20;0.20;;;17.60;99.90;;;;;;5042294;28;20032;-65
2023/09/19 12:11:15;;;;;;;0.10;0.10;;;17.50;99.90;;;;;;5037089;28;20036;-65
2023/09/19 12:13:46;;;;;;;0.20;0.10;;;17.50;99.90;;;;;;5038686;28;20094;-65
2023/09/19 12:16:16;;;;;;;0.63;0.63;;;17.50;99.90;;;;;;5039703;28;20123;-65
2023/09/19 12:18:44;;;;;;;2.03;0.28;;;17.40;99.90;;;;;;5076112;28;20064;-65
2023/09/19 12:21:36;;;;;;;0.85;0.80;;;17.40;99.90;;;;;;5070655;28;20507;-65
2023/09/19 12:24:19;;;;;;;1.00;0.73;;;17.40;99.90;;;;;;5073462;28;20055;-64
2023/09/19 12:26:47;;;;;;;5.40;0.68;;;17.50;99.90;;;;;;5039984;28;20495;-65
2023/09/19 12:29:18;;;;;;;0.40;0.40;;;17.70;99.90;;;;;;5031073;28;20166;-64
2023/09/19 12:31:53;;;;;;;0.50;0.50;;;18.00;99.90;;;;;;5045331;28;20406;-65
2023/09/19 12:34:27;;;;;;;0.10;0.10;;;18.10;99.90;;;;;;5051300;28;20040;-65
2023/09/19 12:37:21;;;;;;;0.45;0.20;;;18.10;99.90;;;;;;5040137;28;20051;-65
2023/09/19 12:39:49;;;;;;;0.10;0.10;;;18.10;99.90;;;;;;5064970;28;20041;-65
2023/09/19 12:42:16;;;;;;;1.05;0.95;;;18.00;99.90;;;;;;5038284;28;20483;-65
2023/09/19 12:44:46;;;;;;;0.30;0.30;;;18.00;99.90;;;;;;5041761;28;20408;-65
2023/09/19 12:47:17;;;;;;;0.55;0.55;;;17.90;99.90;;;;;;5075687;28;20033;-65
2023/09/19 12:50:06;;;;;;;0.30;0.30;;;17.90;99.90;;;;;;5031279;28;20037;-66
2023/09/19 12:52:38;;;;;;;0.20;0.20;;;17.90;99.90;;;;;;5044768;28;20033;-65
2023/09/19 12:55:06;;;;;;;0.32;0.32;;;17.80;99.90;;;;;;5049382;28;20116;-65
2023/09/19 12:57:34;;;;;;;0.20;0.20;;;17.80;99.90;;;;;;5048897;28;20036;-64
2023/09/19 13:00:02;;;;;;;0.63;0.63;;;17.80;99.90;;;;;;5050923;28;20067;-65
2023/09/19 13:02:28;;;;;;;0.28;0.20;;;17.80;99.90;;;;;;5036371;28;20047;-68
2023/09/19 13:04:55;;;;;;;0.50;0.50;;;17.70;99.90;;;;;;5015790;28;20037;-65
2023/09/19 13:07:44;;;;;;;0.10;0.10;;;17.60;99.90;;;;;;5064745;28;20045;-65
2023/09/19 13:10:10;;;;;;;0.10;0.10;;;17.60;99.90;;;;;;5045263;28;20036;-66